Time;durP1;ratioP1;P1;durP2;ratioP2;P2;SDS_P1;SDS_P2;PMS_P1;PMS_P2;Temp;Humidity;BMP_temperature;BMP_pressure;BME280_temperature;BME280_humidity;BME280_pressure;Samples;Min_cycle;Max_cycle;Signal;HPM_P1;HPM_P2
2022/05/14 00:01:29;;;;;;;5.95;3.33;;;;;;;15.64;90.97;98847.00;4485917;31;20084;-71
2022/05/14 00:03:57;;;;;;;4.50;3.30;;;;;;;15.55;91.75;98851.47;4485401;31;20155;-71
2022/05/14 00:06:26;;;;;;;4.75;3.30;;;;;;;15.47;92.38;98845.38;4485928;31;20485;-71
2022/05/14 00:08:54;;;;;;;5.00;3.65;;;;;;;15.42;92.76;98845.88;4485482;31;20084;-71
2022/05/14 00:14:08;;;;;;;6.10;3.65;;;;;;;15.28;93.60;98844.72;4485533;31;20080;-71
2022/05/14 00:16:36;;;;;;;5.60;3.72;;;;;;;15.28;93.62;98839.47;4485700;32;20176;-71
2022/05/14 00:19:06;;;;;;;5.00;3.58;;;;;;;15.29;93.87;98850.81;4485528;31;20445;-71
2022/05/14 00:21:35;;;;;;;4.00;3.15;;;;;;;15.26;94.07;98846.69;4485321;31;20126;-71
2022/05/14 00:24:06;;;;;;;5.05;3.42;;;;;;;15.21;94.25;98859.56;4485664;31;20128;-71
2022/05/14 00:26:35;;;;;;;5.47;3.58;;;;;;;15.31;93.54;98857.59;4485597;31;20089;-71
2022/05/14 00:29:04;;;;;;;5.12;4.10;;;;;;;15.35;93.05;98860.72;4485317;31;20176;-71
2022/05/14 00:31:32;;;;;;;7.05;3.85;;;;;;;15.35;93.15;98852.81;4485499;31;20114;-71
2022/05/14 00:33:59;;;;;;;6.68;3.85;;;;;;;15.34;93.44;98853.81;4485333;31;20127;-71
2022/05/14 00:36:27;;;;;;;7.18;4.10;;;;;;;15.28;94.08;98842.09;4485573;31;20088;-71
2022/05/14 00:38:54;;;;;;;4.93;3.50;;;;;;;15.33;93.80;98834.50;4485432;31;20153;-71
2022/05/14 00:41:21;;;;;;;6.53;3.97;;;;;;;15.30;94.00;98832.19;4485605;31;20122;-71
2022/05/14 00:43:54;;;;;;;8.38;3.90;;;;;;;15.28;94.24;98839.47;4485226;31;20390;-71
2022/05/14 00:46:25;;;;;;;6.37;4.03;;;;;;;15.32;94.28;98838.12;4485414;31;20547;-71
2022/05/14 00:48:55;;;;;;;6.03;4.03;;;;;;;15.32;94.40;98826.75;4484025;32;20105;-71
2022/05/14 00:51:28;;;;;;;8.25;4.12;;;;;;;15.34;94.29;98843.25;4483847;32;20535;-71
2022/05/14 00:54:03;;;;;;;8.63;4.50;;;;;;;15.35;94.16;98843.09;4485414;31;20084;-71
2022/05/14 00:56:35;;;;;;;7.25;4.78;;;;;;;15.35;94.18;98836.97;4484183;32;20123;-71
2022/05/14 00:59:10;;;;;;;8.63;4.22;;;;;;;15.38;94.20;98840.13;4485626;31;20110;-71
2022/05/14 01:01:37;;;;;;;6.95;5.18;;;;;;;15.30;94.71;98837.47;4485419;32;20080;-71
2022/05/14 01:04:06;;;;;;;6.80;4.87;;;;;;;15.28;94.99;98823.62;4485554;31;20112;-71
2022/05/14 01:06:35;;;;;;;6.35;4.15;;;;;;;15.24;95.44;98833.66;4485389;32;20153;-71
2022/05/14 01:09:06;;;;;;;7.60;4.47;;;;;;;15.22;95.82;98840.13;4483908;32;20105;-71
2022/05/14 01:11:37;;;;;;;5.10;4.45;;;;;;;15.17;96.27;98834.50;4485417;32;20092;-71
2022/05/14 01:14:05;;;;;;;6.03;4.72;;;;;;;15.11;96.80;98843.91;4485123;31;20095;-71
2022/05/14 01:16:33;;;;;;;5.75;4.40;;;;;;;15.07;97.25;98842.59;4484740;32;20123;-71
2022/05/14 01:19:01;;;;;;;6.40;4.30;;;;;;;14.99;97.89;98846.03;4485071;32;20088;-71
2022/05/14 01:21:37;;;;;;;6.95;4.80;;;;;;;14.98;98.22;98846.22;4485243;31;20122;-71
2022/05/14 01:27:13;;;;;;;7.45;5.30;;;;;;;14.82;99.68;98837.28;4485474;31;20115;-71
2022/05/14 01:29:42;;;;;;;7.30;4.90;;;;;;;14.82;100.00;98844.38;4484995;32;20135;-71
2022/05/14 01:32:09;;;;;;;11.07;5.28;;;;;;;14.74;100.00;98853.09;4484064;32;20123;-71
2022/05/14 01:34:36;;;;;;;7.70;4.90;;;;;;;14.70;100.00;98841.19;4484923;31;20463;-71
2022/05/14 01:37:04;;;;;;;6.55;5.00;;;;;;;14.67;100.00;98852.91;4485357;32;20096;-71
2022/05/14 01:39:32;;;;;;;7.87;4.82;;;;;;;14.67;100.00;98852.91;4485155;31;20421;-71
2022/05/14 01:41:59;;;;;;;7.20;5.15;;;;;;;14.60;100.00;98851.88;4485223;31;20463;-71
2022/05/14 01:44:27;;;;;;;8.70;4.90;;;;;;;14.61;100.00;98858.84;4485266;31;20100;-71
2022/05/14 01:46:54;;;;;;;8.05;4.87;;;;;;;14.52;100.00;98859.78;4485070;31;20454;-71
2022/05/14 01:49:23;;;;;;;8.65;4.82;;;;;;;14.46;100.00;98858.59;4485325;31;20450;-71
2022/05/14 01:51:52;;;;;;;6.60;5.18;;;;;;;14.42;100.00;98853.81;4484943;32;20135;-71
2022/05/14 01:54:19;;;;;;;6.82;4.97;;;;;;;14.33;100.00;98855.56;4483890;32;20445;-71
2022/05/14 01:56:46;;;;;;;6.62;5.20;;;;;;;14.29;100.00;98860.34;4485100;31;20163;-71
2022/05/14 01:59:15;;;;;;;8.68;5.25;;;;;;;14.27;100.00;98858.84;4485175;31;20096;-71
2022/05/14 02:01:42;;;;;;;8.27;4.93;;;;;;;14.25;100.00;98853.75;4485037;31;20113;-71
2022/05/14 02:04:15;;;;;;;8.52;5.57;;;;;;;14.31;100.00;98855.72;4484908;31;20144;-71
2022/05/14 02:06:43;;;;;;;6.70;5.70;;;;;;;14.25;100.00;98855.56;4484812;31;20080;-71
2022/05/14 02:09:13;;;;;;;9.02;5.75;;;;;;;14.17;100.00;98848.41;4484867;31;20104;-71
2022/05/14 02:11:42;;;;;;;10.02;6.20;;;;;;;14.12;100.00;98851.53;4484935;31;20088;-71
2022/05/14 02:14:11;;;;;;;10.15;6.55;;;;;;;14.09;100.00;98859.75;4484851;31;20084;-71
2022/05/14 02:16:39;;;;;;;12.52;6.32;;;;;;;14.02;100.00;98850.84;4483488;32;20116;-71
2022/05/14 02:19:06;;;;;;;11.25;6.12;;;;;;;14.04;100.00;98855.97;4484638;32;20081;-71
2022/05/14 02:21:35;;;;;;;9.13;6.10;;;;;;;13.97;100.00;98853.94;4484593;31;20641;-71
2022/05/14 02:24:03;;;;;;;9.18;6.40;;;;;;;13.99;100.00;98857.25;4484678;31;20223;-71
2022/05/14 02:26:30;;;;;;;10.70;6.40;;;;;;;13.95;100.00;98852.44;4483858;31;20127;-71
2022/05/14 02:28:58;;;;;;;9.88;6.80;;;;;;;13.95;100.00;98855.91;4484496;31;20108;-71
2022/05/14 02:31:27;;;;;;;9.07;6.00;;;;;;;13.88;100.00;98851.41;4484271;31;20126;-71
2022/05/14 02:33:55;;;;;;;9.95;6.47;;;;;;;13.88;100.00;98854.03;4484871;31;20164;-71
2022/05/14 02:36:22;;;;;;;10.57;6.87;;;;;;;13.88;100.00;98862.75;4483471;32;20104;-71
2022/05/14 02:38:49;;;;;;;11.60;6.40;;;;;;;13.85;100.00;98857.81;4484703;31;20096;-71
2022/05/14 02:41:18;;;;;;;12.50;6.95;;;;;;;13.85;100.00;98868.34;4484744;31;20147;-71
2022/05/14 02:43:45;;;;;;;9.70;6.62;;;;;;;13.81;100.00;98861.75;4484335;31;20114;-71
2022/05/14 02:46:12;;;;;;;11.18;7.10;;;;;;;13.81;100.00;98852.03;4484621;31;20104;-71
2022/05/14 02:48:40;;;;;;;11.10;7.15;;;;;;;13.82;100.00;98855.50;4484449;31;20091;-71
2022/05/14 02:51:08;;;;;;;10.63;6.97;;;;;;;13.82;100.00;98864.22;4484013;31;20088;-71
2022/05/14 02:53:35;;;;;;;11.15;6.80;;;;;;;13.68;100.00;98864.78;4484399;31;20089;-71
2022/05/14 02:56:02;;;;;;;9.52;6.80;;;;;;;13.67;100.00;98860.50;4484203;31;20438;-71
2022/05/14 03:01:16;;;;;;;16.40;7.65;;;;;;;13.61;100.00;98871.66;4483986;32;20108;-71
2022/05/14 03:03:43;;;;;;;9.80;7.10;;;;;;;13.58;100.00;98869.31;4484272;31;20398;-71
2022/05/14 03:06:10;;;;;;;10.55;7.80;;;;;;;13.52;100.00;98878.69;4484426;32;20123;-71
2022/05/14 03:08:38;;;;;;;10.30;7.50;;;;;;;13.52;100.00;98875.19;4484387;32;20100;-71
2022/05/14 03:11:05;;;;;;;12.70;7.12;;;;;;;13.53;100.00;98884.75;4484314;31;20088;-71
2022/05/14 03:13:32;;;;;;;12.45;8.18;;;;;;;13.50;100.00;98880.63;4483927;31;20501;-71
2022/05/14 03:16:00;;;;;;;11.80;8.23;;;;;;;13.51;100.00;98892.81;4484399;32;20154;-71
2022/05/14 03:18:27;;;;;;;10.90;7.10;;;;;;;13.49;100.00;98894.78;4484021;32;20088;-71
2022/05/14 03:20:54;;;;;;;13.05;8.90;;;;;;;13.52;100.00;98898.88;4483813;31;20141;-71
2022/05/14 03:23:21;;;;;;;10.90;7.70;;;;;;;13.53;100.00;98896.09;4483660;31;20586;-71
2022/05/14 03:25:49;;;;;;;14.07;8.77;;;;;;;13.53;100.00;98896.09;4483892;31;20081;-71
2022/05/14 03:28:16;;;;;;;16.25;7.82;;;;;;;13.53;100.00;98901.38;4483588;31;20096;-71
2022/05/14 03:30:44;;;;;;;10.55;7.90;;;;;;;13.55;100.00;98904.69;4483620;31;20594;-71
2022/05/14 03:33:11;;;;;;;13.55;7.70;;;;;;;13.61;100.00;98903.22;4483612;31;20453;-71
2022/05/14 03:35:38;;;;;;;9.55;7.10;;;;;;;13.64;100.00;98908.19;4484129;31;20557;-71
2022/05/14 03:38:06;;;;;;;9.40;7.15;;;;;;;13.73;100.00;98911.72;4484015;31;20139;-71
2022/05/14 03:40:33;;;;;;;10.63;7.62;;;;;;;13.79;100.00;98908.47;4485865;31;20104;-71
2022/05/14 03:43:00;;;;;;;9.75;6.85;;;;;;;13.84;100.00;98908.84;4486226;31;20447;-71
2022/05/14 03:45:28;;;;;;;13.82;8.05;;;;;;;13.87;100.00;98905.91;4486172;31;20119;-71
2022/05/14 03:47:55;;;;;;;13.95;7.37;;;;;;;13.92;100.00;98900.16;4486023;31;20217;-71
2022/05/14 03:50:22;;;;;;;11.52;7.07;;;;;;;13.93;100.00;98907.91;4485923;31;20092;-71
2022/05/14 03:52:50;;;;;;;12.70;7.70;;;;;;;13.97;100.00;98908.41;4485694;31;20092;-71
2022/05/14 03:55:17;;;;;;;10.65;6.65;;;;;;;14.02;100.00;98906.97;4485862;31;20101;-71
2022/05/14 03:57:44;;;;;;;8.27;6.53;;;;;;;14.11;100.00;98915.75;4485718;31;20119;-71
2022/05/14 04:00:13;;;;;;;12.57;6.75;;;;;;;14.14;100.00;98923.34;4485952;31;20164;-71
2022/05/14 04:02:41;;;;;;;12.20;6.05;;;;;;;14.21;100.00;98926.16;4485614;31;20134;-71
2022/05/14 04:05:09;;;;;;;12.82;6.90;;;;;;;14.27;100.00;98933.44;4485758;32;20092;-71
2022/05/14 04:07:37;;;;;;;10.25;6.68;;;;;;;14.31;100.00;98926.87;4485579;31;20580;-71
2022/05/14 04:10:05;;;;;;;11.35;6.90;;;;;;;14.37;100.00;98934.16;4486192;31;20104;-71
2022/05/14 04:12:32;;;;;;;10.88;7.28;;;;;;;14.48;100.00;98938.31;4485848;31;20084;-71
2022/05/14 04:14:59;;;;;;;11.38;7.47;;;;;;;14.55;100.00;98939.34;4486035;31;20382;-71
2022/05/14 04:17:28;;;;;;;10.38;6.68;;;;;;;14.59;100.00;98939.84;4485903;31;20441;-71
2022/05/14 04:19:56;;;;;;;11.68;6.95;;;;;;;14.62;100.00;98942.19;4485613;31;20088;-71
2022/05/14 04:22:24;;;;;;;13.68;7.12;;;;;;;14.71;100.00;98956.25;4485575;31;20093;-71
2022/05/14 04:24:51;;;;;;;9.38;6.70;;;;;;;14.72;100.00;98961.38;4485688;31;20143;-71
2022/05/14 04:27:19;;;;;;;12.32;6.95;;;;;;;14.75;100.00;98962.03;4485654;31;20168;-71
2022/05/14 04:29:46;;;;;;;10.32;6.55;;;;;;;14.64;100.00;98957.87;4485511;31;20436;-71
2022/05/14 04:32:14;;;;;;;10.60;7.07;;;;;;;14.70;100.00;98967.78;4485556;31;20105;-71
2022/05/14 04:34:42;;;;;;;10.68;7.18;;;;;;;14.88;100.00;98968.53;4485840;31;20578;-71
2022/05/14 04:37:09;;;;;;;11.68;6.87;;;;;;;14.91;100.00;98964.72;4485408;31;20152;-71
2022/05/14 04:39:37;;;;;;;10.35;6.75;;;;;;;14.98;100.00;98975.47;4485717;31;20081;-71
2022/05/14 04:42:06;;;;;;;8.23;6.37;;;;;;;15.06;100.00;98981.59;4485534;31;20336;-71
2022/05/14 04:44:36;;;;;;;10.90;6.47;;;;;;;15.03;100.00;98981.09;4485200;31;20469;-71
2022/05/14 04:47:04;;;;;;;8.70;5.82;;;;;;;14.93;100.00;98981.22;4485462;31;20565;-71
2022/05/14 04:49:46;;;;;;;13.13;6.85;;;;;;;14.93;100.00;98975.13;4484781;31;20160;-71
2022/05/14 04:52:14;;;;;;;8.93;6.50;;;;;;;15.04;100.00;98980.91;4485323;31;20454;-71
2022/05/14 04:54:41;;;;;;;7.93;6.40;;;;;;;15.16;99.27;98980.63;4485227;31;20128;-71
2022/05/14 04:57:09;;;;;;;10.02;6.65;;;;;;;15.22;97.84;98985.28;4485362;31;20091;-71
2022/05/14 04:59:36;;;;;;;8.30;5.53;;;;;;;15.32;96.51;98988.59;4485259;31;20115;-71
2022/05/14 05:04:51;;;;;;;8.43;6.05;;;;;;;15.34;96.13;98991.06;4485304;31;20088;-71
2022/05/14 05:07:18;;;;;;;9.98;6.05;;;;;;;15.32;94.72;98993.88;4485626;32;20152;-71
2022/05/14 05:09:46;;;;;;;7.95;6.18;;;;;;;15.32;94.69;98993.88;4485350;31;20107;-71
2022/05/14 05:12:13;;;;;;;12.13;7.12;;;;;;;15.30;95.12;99002.94;4485507;31;20419;-71
2022/05/14 05:14:41;;;;;;;8.80;5.78;;;;;;;15.25;94.98;99000.78;4485054;31;20601;-71
2022/05/14 05:17:08;;;;;;;8.80;5.43;;;;;;;15.35;94.33;99008.53;4485295;31;20131;-71
2022/05/14 05:19:36;;;;;;;13.00;6.37;;;;;;;15.38;93.73;99016.97;4473581;31;20160;-71
2022/05/14 05:22:04;;;;;;;7.53;5.72;;;;;;;15.48;93.28;99016.00;4469236;32;20089;-71
2022/05/14 05:24:31;;;;;;;9.85;6.07;;;;;;;15.55;92.31;99017.84;4469422;32;20116;-71
2022/05/14 05:26:59;;;;;;;9.90;6.12;;;;;;;15.70;92.15;99017.16;4469577;32;20160;-71
2022/05/14 05:29:26;;;;;;;8.80;6.20;;;;;;;15.65;92.87;99024.78;4473684;32;20092;-71
2022/05/14 05:31:53;;;;;;;11.88;6.70;;;;;;;15.74;91.66;99023.78;4482913;31;20122;-71
2022/05/14 05:34:21;;;;;;;9.20;6.03;;;;;;;15.81;91.66;99027.47;4484853;31;20104;-71
2022/05/14 05:36:48;;;;;;;9.63;5.82;;;;;;;15.89;89.82;99032.75;4485204;31;20096;-71
2022/05/14 05:39:17;;;;;;;6.95;5.20;;;;;;;15.88;88.27;99031.09;4485135;31;20100;-71
2022/05/14 05:41:44;;;;;;;6.97;5.00;;;;;;;16.00;87.36;99028.94;4483391;31;20188;-71
2022/05/14 05:44:12;;;;;;;5.97;4.40;;;;;;;16.19;86.75;99040.19;4469231;32;20531;-71
2022/05/14 05:46:39;;;;;;;8.07;4.50;;;;;;;16.34;85.10;99040.34;4469402;32;20088;-71
2022/05/14 05:49:07;;;;;;;9.65;5.40;;;;;;;16.56;82.77;99034.31;4469249;32;20105;-71
2022/05/14 05:51:35;;;;;;;8.27;4.37;;;;;;;16.58;81.96;99048.22;4469307;32;20084;-71
2022/05/14 05:56:56;;;;;;;5.43;4.40;;;;;;;16.60;80.69;99048.03;4480277;31;20166;-71
2022/05/14 05:59:24;;;;;;;7.80;4.78;;;;;;;16.77;79.52;99052.28;4480076;32;20100;-71
2022/05/14 06:01:52;;;;;;;8.70;5.10;;;;;;;16.68;80.35;99053.28;4483214;31;20141;-72
2022/05/14 06:04:23;;;;;;;7.62;5.20;;;;;;;16.66;79.92;99047.38;4484711;31;20583;-72
2022/05/14 06:06:50;;;;;;;6.65;4.97;;;;;;;16.63;78.16;99060.94;4484918;31;20076;-72
2022/05/14 06:09:20;;;;;;;9.23;5.00;;;;;;;16.56;79.29;99059.94;4480813;31;20091;-71
2022/05/14 06:11:48;;;;;;;6.53;4.30;;;;;;;16.72;78.18;99059.09;4484888;31;20088;-71
2022/05/14 06:14:16;;;;;;;6.87;4.37;;;;;;;16.92;78.45;99062.19;4484553;31;20088;-71
2022/05/14 06:16:43;;;;;;;7.05;4.30;;;;;;;16.95;75.09;99064.50;4484799;31;20190;-71
2022/05/14 06:19:11;;;;;;;7.95;3.95;;;;;;;16.90;76.17;99069.50;4484723;32;20524;-71
2022/05/14 06:21:39;;;;;;;6.72;3.65;;;;;;;17.02;75.05;99068.12;4484592;31;20107;-71
2022/05/14 06:24:07;;;;;;;8.60;3.30;;;;;;;17.15;72.76;99068.41;4483336;32;20102;-71
2022/05/14 06:26:34;;;;;;;7.12;3.50;;;;;;;17.10;69.78;99076.03;4484860;31;20124;-71
2022/05/14 06:29:01;;;;;;;5.10;3.00;;;;;;;17.18;69.76;99073.34;4484277;31;20096;-71
2022/05/14 06:31:29;;;;;;;7.22;3.05;;;;;;;17.30;67.80;99070.31;4484455;31;20100;-71
2022/05/14 06:33:56;;;;;;;4.75;2.37;;;;;;;17.42;65.92;99068.91;4484456;32;20149;-71
2022/05/14 06:36:23;;;;;;;4.70;2.45;;;;;;;17.25;64.42;99067.38;4484550;32;20111;-71
2022/05/14 06:38:51;;;;;;;3.60;2.72;;;;;;;17.29;65.26;99060.69;4484793;31;20412;-72
2022/05/14 06:41:18;;;;;;;5.70;2.78;;;;;;;17.34;65.89;99068.97;4484386;31;20077;-71
2022/05/14 06:43:45;;;;;;;6.22;2.72;;;;;;;17.45;64.28;99073.06;4476765;31;20410;-71
2022/05/14 06:46:13;;;;;;;6.57;3.22;;;;;;;17.38;63.90;99071.09;4474274;32;20130;-71
2022/05/14 06:48:41;;;;;;;8.48;2.65;;;;;;;17.33;63.78;99073.44;4477420;32;20100;-71
2022/05/14 06:51:11;;;;;;;7.12;2.83;;;;;;;17.54;63.29;99078.13;4483810;31;20122;-71
2022/05/14 06:53:40;;;;;;;4.00;2.40;;;;;;;17.68;63.31;99087.16;4484263;31;20498;-71
2022/05/14 06:56:08;;;;;;;4.55;2.42;;;;;;;17.84;61.55;99085.41;4478301;32;20126;-71
2022/05/14 06:58:37;;;;;;;3.05;2.75;;;;;;;17.90;61.50;99098.78;4468853;32;20089;-71
2022/05/14 07:01:05;;;;;;;9.90;3.10;;;;;;;17.96;61.03;99096.47;4468458;32;20097;-72
2022/05/14 07:06:40;;;;;;;5.62;2.62;;;;;;;18.10;61.23;99095.66;4468158;32;20108;-72
2022/05/14 07:09:24;;;;;;;7.20;2.95;;;;;;;18.29;61.55;99104.13;4468452;32;20088;-71
2022/05/14 07:11:53;;;;;;;7.53;2.85;;;;;;;18.22;60.70;99096.91;4468410;32;20081;-71
2022/05/14 07:14:21;;;;;;;10.77;2.90;;;;;;;18.43;61.04;99100.72;4469649;32;20147;-72
2022/05/14 07:16:50;;;;;;;10.15;2.75;;;;;;;18.52;59.46;99104.13;4477078;32;20096;-72
2022/05/14 07:19:17;;;;;;;3.37;2.75;;;;;;;18.48;59.21;99098.34;4470253;32;20093;-71
2022/05/14 07:21:46;;;;;;;5.85;3.05;;;;;;;18.68;59.76;99103.94;4469900;32;20164;-71
2022/05/14 07:24:18;;;;;;;3.83;2.50;;;;;;;18.65;58.46;99098.19;4469036;32;20128;-72
2022/05/14 07:26:46;;;;;;;4.13;2.60;;;;;;;18.73;58.14;99101.59;4471032;32;20119;-72
2022/05/14 07:29:16;;;;;;;5.20;3.58;;;;;;;18.74;57.38;99099.75;4480481;32;20184;-71
2022/05/14 07:31:43;;;;;;;9.55;2.78;;;;;;;18.70;58.12;99101.09;4485837;31;20143;-72
2022/05/14 07:34:11;;;;;;;2.92;2.10;;;;;;;18.86;56.90;99100.97;4486085;31;20163;-72
2022/05/14 07:37:01;;;;;;;11.20;2.58;;;;;;;18.87;54.18;99105.28;4485929;31;20092;-72
2022/05/14 07:39:41;;;;;;;6.90;2.35;;;;;;;18.94;56.47;99092.94;4470313;32;20080;-71
2022/05/14 07:42:12;;;;;;;3.67;2.80;;;;;;;18.84;57.14;99102.97;4470463;32;20080;-71
2022/05/14 07:44:41;;;;;;;7.00;3.25;;;;;;;19.06;57.12;99106.56;4469319;32;20192;-71
2022/05/14 07:47:09;;;;;;;8.13;2.33;;;;;;;19.12;57.33;99094.37;4471586;32;20093;-71
2022/05/14 07:49:36;;;;;;;5.55;2.40;;;;;;;19.24;54.96;99108.00;4486027;31;20095;-71
2022/05/14 07:52:04;;;;;;;4.95;2.62;;;;;;;19.02;53.93;99099.97;4485117;32;20144;-71
2022/05/14 07:54:31;;;;;;;12.27;2.80;;;;;;;18.99;54.21;99105.66;4486011;31;20100;-71
2022/05/14 07:57:00;;;;;;;6.43;2.40;;;;;;;19.08;55.03;99095.75;4484833;31;20096;-72
2022/05/14 07:59:28;;;;;;;9.93;2.75;;;;;;;19.25;54.00;99107.00;4470368;32;20104;-71
2022/05/14 08:01:55;;;;;;;5.90;2.30;;;;;;;19.31;51.04;99098.31;4470168;32;20103;-72
2022/05/14 08:04:22;;;;;;;6.40;2.30;;;;;;;19.22;50.14;99104.72;4470168;32;20151;-72
2022/05/14 08:06:49;;;;;;;9.52;2.62;;;;;;;19.35;49.69;99109.37;4470223;32;20093;-72
2022/05/14 08:09:17;;;;;;;10.55;3.15;;;;;;;19.26;51.03;99101.50;4470156;32;20101;-72
2022/05/14 08:11:44;;;;;;;5.70;1.77;;;;;;;19.52;52.21;99092.22;4469807;32;20137;-72
2022/05/14 08:14:11;;;;;;;8.20;2.30;;;;;;;19.40;46.67;99096.38;4470035;32;20093;-71
2022/05/14 08:16:38;;;;;;;7.10;2.22;;;;;;;19.30;48.33;99097.47;4470101;32;20135;-72
2022/05/14 08:19:06;;;;;;;4.32;1.92;;;;;;;19.41;45.77;99113.94;4469918;32;20168;-71
2022/05/14 08:24:34;;;;;;;3.78;1.70;;;;;;;19.50;47.86;99112.84;4469992;32;20193;-71
2022/05/14 08:27:09;;;;;;;3.17;1.50;;;;;;;19.39;45.28;99100.84;4469873;32;20864;-71
2022/05/14 08:29:44;;;;;;;7.00;2.20;;;;;;;19.32;43.69;99102.63;4469716;32;20108;-71
2022/05/14 08:32:11;;;;;;;4.18;1.90;;;;;;;19.50;43.82;99099.56;4484587;32;20110;-71
2022/05/14 08:34:38;;;;;;;5.15;1.70;;;;;;;19.69;44.74;99096.28;4485462;31;20101;-71
2022/05/14 08:37:07;;;;;;;4.37;1.80;;;;;;;19.87;43.93;99097.72;4485430;31;20104;-71
2022/05/14 08:39:34;;;;;;;7.20;1.80;;;;;;;19.76;44.00;99098.22;4485503;31;20453;-72
2022/05/14 08:42:01;;;;;;;10.55;1.98;;;;;;;19.75;44.12;99104.53;4484148;32;20076;-71
2022/05/14 08:44:33;;;;;;;3.80;1.60;;;;;;;19.71;43.41;99104.06;4484274;32;20128;-72
2022/05/14 08:47:06;;;;;;;6.68;2.08;;;;;;;19.71;42.53;99089.94;4485435;31;20491;-71
2022/05/14 08:49:40;;;;;;;5.80;2.00;;;;;;;19.69;44.52;99096.28;4485869;31;20111;-71
2022/05/14 08:52:15;;;;;;;3.87;2.15;;;;;;;19.78;44.40;99097.00;4485161;31;20064;-71
2022/05/14 08:54:43;;;;;;;4.55;1.85;;;;;;;19.92;43.25;99089.19;4484420;32;20122;-71
2022/05/14 08:57:18;;;;;;;8.32;2.78;;;;;;;20.05;43.98;99093.81;4485315;31;20118;-71
2022/05/14 08:59:55;;;;;;;3.83;2.00;;;;;;;20.17;44.09;99092.28;4485677;31;20088;-72
2022/05/14 09:02:25;;;;;;;3.87;1.70;;;;;;;20.31;44.05;99096.69;4485294;31;20068;-72
2022/05/14 09:04:57;;;;;;;2.95;1.70;;;;;;;20.32;44.57;99085.03;4485465;31;20119;-72
2022/05/14 09:07:25;;;;;;;5.18;2.25;;;;;;;20.38;43.13;99094.09;4485272;32;20084;-72
2022/05/14 09:09:56;;;;;;;4.95;2.10;;;;;;;20.43;43.77;99091.66;4485262;32;20191;-72
2022/05/14 09:12:28;;;;;;;6.93;2.25;;;;;;;20.60;42.21;99097.50;4484087;32;20111;-72
2022/05/14 09:15:00;;;;;;;2.62;1.60;;;;;;;20.11;43.18;99095.72;4485306;31;20104;-72
2022/05/14 09:17:29;;;;;;;4.12;1.60;;;;;;;20.31;41.95;99091.38;4485334;31;20148;-72
2022/05/14 09:19:58;;;;;;;6.05;2.03;;;;;;;20.18;40.80;99104.53;4485164;31;20093;-72
2022/05/14 09:22:25;;;;;;;3.40;1.73;;;;;;;20.25;42.54;99089.47;4485021;31;20106;-72
2022/05/14 09:24:57;;;;;;;3.83;1.77;;;;;;;20.30;42.18;99089.75;4485475;31;20127;-72
2022/05/14 09:27:51;;;;;;;4.97;2.60;;;;;;;20.28;40.89;99089.09;4485113;32;20088;-72
2022/05/14 09:30:23;;;;;;;;;;;;;;;20.33;43.14;99096.50;4485396;31;20100;-72
2022/05/14 09:32:51;;;;;;;7.12;2.33;;;;;;;20.19;42.75;99099.03;4485196;31;19979;-71
2022/05/14 09:35:24;;;;;;;3.67;2.05;;;;;;;20.41;44.83;99095.53;4485110;31;20390;-72
2022/05/14 09:37:56;;;;;;;8.03;2.80;;;;;;;20.22;43.89;99095.19;4484755;31;20188;-71
2022/05/14 09:40:29;;;;;;;4.05;2.33;;;;;;;20.20;45.00;99097.22;4485102;31;20198;-71
2022/05/14 09:43:14;;;;;;;4.57;2.03;;;;;;;20.22;43.28;99095.19;4485165;31;20099;-72
2022/05/14 09:45:44;;;;;;;10.65;2.70;;;;;;;20.31;44.71;99078.06;4485040;31;20089;-71
2022/05/14 09:48:18;;;;;;;6.72;2.17;;;;;;;20.25;42.87;99089.47;4485047;31;20095;-72
2022/05/14 09:50:57;;;;;;;3.75;1.85;;;;;;;20.60;43.38;99081.53;4483703;32;20474;-72
2022/05/14 09:53:33;;;;;;;3.90;2.12;;;;;;;20.70;41.16;99071.41;4484877;32;20450;-72
2022/05/14 09:56:14;;;;;;;7.22;2.08;;;;;;;20.55;41.16;99079.47;4485045;32;20092;-72
2022/05/14 09:58:59;;;;;;;4.37;2.53;;;;;;;20.51;41.64;99075.53;4484991;31;20559;-72
2022/05/14 10:01:38;;;;;;;9.20;2.58;;;;;;;20.60;43.18;99073.56;4484919;31;20091;-72
2022/05/14 10:04:34;;;;;;;7.22;2.65;;;;;;;20.41;43.69;99075.09;4484759;31;20103;-72
2022/05/14 10:07:11;;;;;;;3.15;2.10;;;;;;;20.46;41.88;99070.00;4485053;31;20077;-72
2022/05/14 10:09:57;;;;;;;8.43;2.97;;;;;;;20.66;42.98;99069.34;4483453;32;20108;-72
2022/05/14 10:12:35;;;;;;;7.87;2.47;;;;;;;20.61;43.20;99077.88;4485014;31;20111;-72
2022/05/14 10:15:11;;;;;;;5.35;2.53;;;;;;;20.61;43.06;99056.59;4483666;32;20483;-72
2022/05/14 10:17:47;;;;;;;6.95;2.60;;;;;;;20.66;42.81;99062.16;4483494;32;20084;-72
2022/05/14 10:20:34;;;;;;;9.52;2.95;;;;;;;20.85;44.50;99070.47;4483610;32;20651;-72
2022/05/14 10:26:46;;;;;;;4.15;2.70;;;;;;;20.67;41.87;99074.47;4484808;31;20418;-71
2022/05/14 10:29:36;;;;;;;3.95;2.83;;;;;;;20.76;45.22;99068.97;4484429;31;20100;-72
2022/05/14 10:32:13;;;;;;;9.68;3.20;;;;;;;20.79;44.13;99063.25;4484535;32;20437;-72
2022/05/14 10:34:55;;;;;;;6.87;3.20;;;;;;;20.70;43.04;99070.59;4484583;31;20079;-72
2022/05/14 10:37:38;;;;;;;4.62;2.30;;;;;;;20.84;42.85;99059.00;4484699;31;20107;-72
2022/05/14 10:40:34;;;;;;;6.18;2.60;;;;;;;21.02;41.48;99055.81;4484527;32;20152;-72
2022/05/14 10:43:08;;;;;;;13.27;2.95;;;;;;;20.97;42.29;99054.75;4484458;31;20451;-71
2022/05/14 10:45:47;;;;;;;7.50;2.10;;;;;;;20.91;41.07;99059.03;4484316;32;20110;-72
2022/05/14 10:48:30;;;;;;;4.45;2.53;;;;;;;21.17;43.21;99061.00;4483193;32;20140;-72
2022/05/14 10:50:58;;;;;;;5.82;3.78;;;;;;;21.14;40.90;99056.06;4484264;32;20167;-72
2022/05/14 10:53:25;;;;;;;4.80;2.65;;;;;;;21.17;40.98;99050.34;4483078;32;20161;-72
2022/05/14 10:55:58;;;;;;;3.30;2.30;;;;;;;21.25;41.46;99054.66;4484269;31;20103;-72
2022/05/14 10:58:36;;;;;;;9.23;3.00;;;;;;;21.43;42.29;99044.28;4484077;31;20441;-72
2022/05/14 11:01:07;;;;;;;7.62;2.92;;;;;;;21.43;42.52;99038.13;4483179;32;20512;-72
2022/05/14 11:03:36;;;;;;;4.72;2.12;;;;;;;21.35;41.15;99048.97;4484136;31;20092;-72
2022/05/14 11:06:03;;;;;;;7.05;2.22;;;;;;;21.39;40.14;99040.37;4484101;31;20497;-72
2022/05/14 11:08:41;;;;;;;11.70;2.45;;;;;;;21.49;39.77;99044.50;4483814;31;20529;-72
2022/05/14 11:11:13;;;;;;;5.47;2.58;;;;;;;21.40;40.40;99059.84;4484172;32;20119;-72
2022/05/14 11:13:41;;;;;;;7.60;3.12;;;;;;;21.26;40.93;99051.81;4482792;32;20119;-72
2022/05/14 11:16:13;;;;;;;8.60;2.62;;;;;;;21.27;40.86;99042.81;4484340;31;20092;-72
2022/05/14 11:18:54;;;;;;;5.07;2.15;;;;;;;21.37;40.63;99045.06;4482644;32;20076;-72
2022/05/14 11:21:37;;;;;;;5.68;2.72;;;;;;;21.57;39.96;99041.69;4483841;31;20089;-72
2022/05/14 11:24:05;;;;;;;1.92;1.70;;;;;;;21.34;38.82;99036.66;4483957;31;20176;-72
2022/05/14 11:26:46;;;;;;;3.37;2.03;;;;;;;21.60;37.91;99038.59;4483959;32;20418;-72
2022/05/14 11:29:23;;;;;;;4.32;2.28;;;;;;;21.60;37.69;99039.44;4482250;32;20089;-72
2022/05/14 11:32:13;;;;;;;4.03;2.05;;;;;;;21.73;38.56;99043.97;4483694;32;20135;-72
2022/05/14 11:35:13;;;;;;;8.07;3.28;;;;;;;21.82;39.52;99033.09;4483683;31;20148;-72
2022/05/14 11:37:47;;;;;;;4.10;2.20;;;;;;;21.71;37.35;99040.69;4419621;32;20236;-72
2022/05/14 11:40:22;;;;;;;9.32;3.00;;;;;;;21.78;37.78;99043.34;4419060;32;20112;-72
2022/05/14 11:42:53;;;;;;;8.93;2.47;;;;;;;21.83;37.61;99026.75;4419428;32;20106;-72
2022/05/14 11:45:29;;;;;;;3.45;1.90;;;;;;;21.94;38.43;99021.62;4419084;32;20117;-72
2022/05/14 11:48:04;;;;;;;5.72;2.55;;;;;;;21.91;37.00;99029.22;4406795;32;20525;-72
2022/05/14 11:50:44;;;;;;;8.60;2.97;;;;;;;21.91;37.10;99018.56;4406871;32;20157;-72
2022/05/14 11:53:38;;;;;;;6.15;2.85;;;;;;;22.00;39.35;99027.16;4406426;32;20483;-72
2022/05/14 11:56:27;;;;;;;10.70;5.45;;;;;;;21.90;39.97;99022.25;4406690;32;20151;-72
2022/05/14 11:58:59;;;;;;;9.82;5.65;;;;;;;22.02;40.14;99015.25;4419208;32;20086;-72
2022/05/14 12:01:30;;;;;;;8.35;5.55;;;;;;;22.14;40.01;99018.94;4421338;32;20112;-72
2022/05/14 12:04:01;;;;;;;7.43;4.22;;;;;;;22.04;38.74;99013.19;4421321;32;20152;-72
2022/05/14 12:06:44;;;;;;;5.07;2.30;;;;;;;21.93;37.67;99014.62;4409006;32;20122;-72
2022/05/14 12:09:55;;;;;;;4.32;3.20;;;;;;;22.19;37.86;99009.50;4408480;32;20125;-72